Time,TemperatureF,DewpointF,PressureIn,WindDirection,WindDirectionDegrees,WindSpeedMPH,WindSpeedGustMPH,Humidity,HourlyPrecipIn,Conditions,Clouds,dailyrainin,SoftwareType,DateUTC
2013-02-13 00:01:00,13.0,9.0,30.68,West,269,0.0,-999.0,85,-99.99,,,-99.99,,2013-02-13 07:01:00,
2013-02-13 00:11:00,13.0,9.0,30.68,West,269,0.0,-999.0,84,-99.99,,,-99.99,,2013-02-13 07:11:00,
2013-02-13 00:21:00,13.0,9.0,30.68,West,269,0.0,-999.0,84,-99.99,,,-99.99,,2013-02-13 07:21:00,
2013-02-13 00:31:00,13.0,9.0,30.66,West,269,0.0,-999.0,84,-99.99,,,-99.99,,2013-02-13 07:31:00,
2013-02-13 00:41:00,12.0,8.0,30.68,West,269,0.0,-999.0,84,-99.99,,,-99.99,,2013-02-13 07:41:00,
2013-02-13 00:51:00,12.0,8.0,30.68,West,269,0.0,-999.0,84,-99.99,,,-99.99,,2013-02-13 07:51:00,
2013-02-13 01:01:00,13.0,9.0,30.68,West,269,0.0,-999.0,85,-99.99,,,-99.99,,2013-02-13 08:01:00,
2013-02-13 01:11:00,12.0,8.0,30.68,West,269,0.0,-999.0,83,-99.99,,,-99.99,,2013-02-13 08:11:00,
2013-02-13 01:21:00,12.0,8.0,30.68,West,269,0.0,-999.0,83,-99.99,,,-99.99,,2013-02-13 08:21:00,
2013-02-13 01:31:00,12.0,8.0,30.66,West,269,0.0,-999.0,84,-99.99,,,-99.99,,2013-02-13 08:31:00,
2013-02-13 01:42:00,12.0,8.0,30.66,West,269,0.0,-999.0,84,-99.99,,,-99.99,,2013-02-13 08:42:00,
2013-02-13 01:51:00,12.0,8.0,30.66,West,269,0.0,-999.0,83,-99.99,,,-99.99,,2013-02-13 08:51:00,
2013-02-13 02:01:00,12.0,8.0,30.66,West,269,0.0,-999.0,83,-99.99,,,-99.99,,2013-02-13 09:01:00,
2013-02-13 02:11:00,12.0,8.0,30.66,West,269,0.0,-999.0,84,-99.99,,,-99.99,,2013-02-13 09:11:00,
2013-02-13 02:21:00,12.0,8.0,30.66,West,269,0.0,-999.0,84,-99.99,,,-99.99,,2013-02-13 09:21:00,
2013-02-13 02:31:00,12.0,8.0,30.64,West,269,0.0,-999.0,85,-99.99,,,-99.99,,2013-02-13 09:31:00,
2013-02-13 02:41:00,12.0,8.0,30.63,West,269,0.0,-999.0,85,-99.99,,,-99.99,,2013-02-13 09:41:00,
2013-02-13 02:51:00,12.0,8.0,30.63,West,269,0.0,-999.0,85,-99.99,,,-99.99,,2013-02-13 09:51:00,
2013-02-13 03:01:00,12.0,8.0,30.63,West,269,0.0,-999.0,85,-99.99,,,-99.99,,2013-02-13 10:01:00,
2013-02-13 03:11:00,12.0,8.0,30.63,West,269,0.0,-999.0,84,-99.99,,,-99.99,,2013-02-13 10:11:00,
2013-02-13 03:21:00,12.0,8.0,30.63,West,269,0.0,-999.0,84,-99.99,,,-99.99,,2013-02-13 10:21:00,
2013-02-13 03:31:00,12.0,8.0,30.64,West,269,0.0,-999.0,85,-99.99,,,-99.99,,2013-02-13 10:31:00,
2013-02-13 03:41:00,12.0,8.0,30.63,West,269,0.0,-999.0,83,-99.99,,,-99.99,,2013-02-13 10:41:00,
2013-02-13 03:51:00,12.0,8.0,30.63,West,269,0.0,-999.0,83,-99.99,,,-99.99,,2013-02-13 10:51:00,
2013-02-13 04:01:00,12.0,8.0,30.63,West,269,0.0,-999.0,84,-99.99,,,-99.99,,2013-02-13 11:01:00,
2013-02-13 04:11:00,11.0,7.0,30.63,West,269,0.0,-999.0,83,-99.99,,,-99.99,,2013-02-13 11:11:00,
2013-02-13 04:22:00,11.0,7.0,30.63,West,269,0.0,-999.0,83,-99.99,,,-99.99,,2013-02-13 11:22:00,
2013-02-13 04:31:00,11.0,7.0,30.68,West,269,0.0,-999.0,84,-99.99,,,-99.99,,2013-02-13 11:31:00,
2013-02-13 04:41:00,11.0,7.0,30.68,West,269,0.0,-999.0,84,-99.99,,,-99.99,,2013-02-13 11:41:00,
2013-02-13 04:52:00,11.0,7.0,30.68,West,269,0.0,-999.0,84,-99.99,,,-99.99,,2013-02-13 11:52:00,
2013-02-13 05:02:00,11.0,7.0,30.69,West,269,0.0,-999.0,85,-99.99,,,-99.99,,2013-02-13 12:02:00,
2013-02-13 05:11:00,11.0,7.0,30.68,West,269,0.0,-999.0,84,-99.99,,,-99.99,,2013-02-13 12:11:00,
2013-02-13 05:21:00,11.0,7.0,30.68,West,269,0.0,-999.0,84,-99.99,,,-99.99,,2013-02-13 12:21:00,
2013-02-13 05:31:00,11.0,7.0,30.70,West,269,0.0,-999.0,85,-99.99,,,-99.99,,2013-02-13 12:31:00,
2013-02-13 05:42:00,11.0,7.0,30.70,West,269,0.0,-999.0,85,-99.99,,,-99.99,,2013-02-13 12:42:00,
2013-02-13 05:52:00,11.0,7.0,30.70,West,269,0.0,-999.0,85,-99.99,,,-99.99,,2013-02-13 12:52:00,
2013-02-13 06:02:00,10.0,6.0,30.70,West,269,0.0,-999.0,85,-99.99,,,-99.99,,2013-02-13 13:02:00,
2013-02-13 06:11:00,11.0,7.0,30.71,West,269,0.0,-999.0,85,-99.99,,,-99.99,,2013-02-13 13:11:00,
2013-02-13 06:21:00,11.0,7.0,30.71,West,269,0.0,-999.0,85,-99.99,,,-99.99,,2013-02-13 13:21:00,
2013-02-13 06:31:00,10.0,6.0,30.73,West,269,0.0,-999.0,85,-99.99,,,-99.99,,2013-02-13 13:31:00,
2013-02-13 06:41:00,10.0,7.0,30.76,West,269,0.0,-999.0,86,-99.99,,,-99.99,,2013-02-13 13:41:00,
2013-02-13 06:52:00,10.0,7.0,30.76,West,269,0.0,-999.0,86,-99.99,,,-99.99,,2013-02-13 13:52:00,
2013-02-13 07:01:00,10.0,7.0,30.75,West,269,0.0,-999.0,86,-99.99,,,-99.99,,2013-02-13 14:01:00,
2013-02-13 07:11:00,10.0,7.0,30.75,West,269,0.0,-999.0,86,-99.99,,,-99.99,,2013-02-13 14:11:00,
2013-02-13 07:21:00,10.0,7.0,30.75,West,269,0.0,-999.0,86,-99.99,,,-99.99,,2013-02-13 14:21:00,
2013-02-13 07:31:00,10.0,7.0,30.77,West,269,0.0,-999.0,86,-99.99,,,-99.99,,2013-02-13 14:31:00,
2013-02-13 07:41:00,10.0,7.0,30.77,West,269,0.0,-999.0,86,-99.99,,,-99.99,,2013-02-13 14:41:00,
2013-02-13 07:52:00,10.0,7.0,30.77,West,269,0.0,-999.0,86,-99.99,,,-99.99,,2013-02-13 14:52:00,
2013-02-13 08:01:00,10.0,7.0,30.77,West,269,0.0,-999.0,86,-99.99,,,-99.99,,2013-02-13 15:01:00,
2013-02-13 08:11:00,15.0,11.0,30.73,West,269,0.0,-999.0,85,-99.99,,,-99.99,,2013-02-13 15:11:00,
2013-02-13 08:21:00,15.0,11.0,30.73,West,269,0.0,-999.0,85,-99.99,,,-99.99,,2013-02-13 15:21:00,
2013-02-13 08:31:00,18.0,12.0,30.73,West,269,0.0,-999.0,76,-99.99,,,-99.99,,2013-02-13 15:31:00,
2013-02-13 08:42:00,18.0,12.0,30.73,West,269,0.0,-999.0,76,-99.99,,,-99.99,,2013-02-13 15:42:00,
2013-02-13 08:52:00,20.0,11.0,30.70,West,269,0.0,-999.0,68,-99.99,,,-99.99,,2013-02-13 15:52:00,
2013-02-13 09:01:00,20.0,11.0,30.69,West,269,1.0,-999.0,66,-99.99,,,-99.99,,2013-02-13 16:01:00,
2013-02-13 09:11:00,19.0,10.0,30.69,West,269,2.0,-999.0,67,-99.99,,,-99.99,,2013-02-13 16:11:00,
2013-02-13 09:21:00,19.0,10.0,30.69,West,269,2.0,-999.0,67,-99.99,,,-99.99,,2013-02-13 16:21:00,
2013-02-13 09:31:00,21.0,11.0,30.71,West,269,1.0,-999.0,64,-99.99,,,-99.99,,2013-02-13 16:31:00,
2013-02-13 09:41:00,21.0,11.0,30.71,West,269,1.0,-999.0,64,-99.99,,,-99.99,,2013-02-13 16:41:00,
2013-02-13 09:52:00,22.0,12.0,30.69,West,268,1.0,-999.0,64,-99.99,,,-99.99,,2013-02-13 16:52:00,
2013-02-13 10:01:00,22.0,11.0,30.68,WSW,254,1.0,-999.0,62,-99.99,,,-99.99,,2013-02-13 17:01:00,
2013-02-13 10:11:00,25.0,13.0,30.68,WSW,251,1.0,-999.0,59,-99.99,,,-99.99,,2013-02-13 17:11:00,
2013-02-13 10:21:00,25.0,13.0,30.68,WSW,251,1.0,-999.0,59,-99.99,,,-99.99,,2013-02-13 17:21:00,
2013-02-13 10:31:00,25.0,12.0,30.68,SE,138,1.0,-999.0,58,-99.99,,,-99.99,,2013-02-13 17:31:00,
2013-02-13 10:41:00,25.0,12.0,30.68,SE,138,1.0,-999.0,58,-99.99,,,-99.99,,2013-02-13 17:41:00,
2013-02-13 10:52:00,26.0,13.0,30.68,ESE,118,1.0,-999.0,58,-99.99,,,-99.99,,2013-02-13 17:52:00,
2013-02-13 11:01:00,26.0,12.0,30.66,ESE,121,1.0,-999.0,56,-99.99,,,-99.99,,2013-02-13 18:01:00,
2013-02-13 11:11:00,28.0,14.0,30.66,SE,128,1.0,-999.0,56,-99.99,,,-99.99,,2013-02-13 18:11:00,
2013-02-13 11:22:00,28.0,14.0,30.66,SE,128,1.0,-999.0,56,-99.99,,,-99.99,,2013-02-13 18:22:00,
2013-02-13 11:31:00,29.0,15.0,30.64,SE,129,1.0,-999.0,55,-99.99,,,-99.99,,2013-02-13 18:31:00,
2013-02-13 11:41:00,29.0,15.0,30.64,SE,129,1.0,-999.0,55,-99.99,,,-99.99,,2013-02-13 18:41:00,
2013-02-13 11:52:00,29.0,14.0,30.63,SE,131,1.0,-999.0,54,-99.99,,,-99.99,,2013-02-13 18:52:00,
2013-02-13 12:01:00,30.0,15.0,30.62,South,175,1.0,-999.0,54,-99.99,,,-99.99,,2013-02-13 19:01:00,
2013-02-13 12:11:00,30.0,15.0,30.61,South,173,1.0,-999.0,52,-99.99,,,-99.99,,2013-02-13 19:11:00,
2013-02-13 12:21:00,30.0,15.0,30.61,South,173,1.0,-999.0,52,-99.99,,,-99.99,,2013-02-13 19:21:00,
2013-02-13 12:31:00,31.0,16.0,30.63,South,179,1.0,-999.0,54,-99.99,,,-99.99,,2013-02-13 19:31:00,
2013-02-13 12:41:00,31.0,16.0,30.63,South,179,1.0,-999.0,54,-99.99,,,-99.99,,2013-02-13 19:41:00,
2013-02-13 12:51:00,32.0,18.0,30.59,SSE,151,1.0,-999.0,56,-99.99,,,-99.99,,2013-02-13 19:51:00,
2013-02-13 13:01:00,30.0,15.0,30.59,ESE,114,2.0,-999.0,53,-99.99,,,-99.99,,2013-02-13 20:01:00,
2013-02-13 13:11:00,33.0,18.0,30.58,SSW,197,1.0,-999.0,53,-99.99,,,-99.99,,2013-02-13 20:11:00,
2013-02-13 13:21:00,33.0,18.0,30.58,SSW,197,1.0,-999.0,53,-99.99,,,-99.99,,2013-02-13 20:21:00,
2013-02-13 13:31:00,32.0,18.0,30.56,WSW,245,2.0,-999.0,55,-99.99,,,-99.99,,2013-02-13 20:31:00,
2013-02-13 13:41:00,32.0,17.0,30.55,South,179,2.0,-999.0,53,-99.99,,,-99.99,,2013-02-13 20:41:00,
2013-02-13 13:52:00,32.0,17.0,30.55,South,179,2.0,-999.0,53,-99.99,,,-99.99,,2013-02-13 20:52:00,
2013-02-13 14:01:00,34.0,19.0,30.56,SSE,160,2.0,-999.0,53,-99.99,,,-99.99,,2013-02-13 21:01:00,
2013-02-13 14:11:00,34.0,17.0,30.54,WSW,238,1.0,-999.0,50,-99.99,,,-99.99,,2013-02-13 21:11:00,
2013-02-13 14:21:00,34.0,17.0,30.54,WSW,238,1.0,-999.0,50,-99.99,,,-99.99,,2013-02-13 21:21:00,
2013-02-13 14:31:00,32.0,17.0,30.52,South,182,3.0,-999.0,54,-99.99,,,-99.99,,2013-02-13 21:31:00,
2013-02-13 14:42:00,31.0,17.0,30.54,SSW,200,4.0,-999.0,56,-99.99,,,-99.99,,2013-02-13 21:42:00,
2013-02-13 14:52:00,31.0,17.0,30.54,SSW,200,4.0,-999.0,56,-99.99,,,-99.99,,2013-02-13 21:52:00,
2013-02-13 15:01:00,32.0,18.0,30.55,SSW,194,3.0,-999.0,56,-99.99,,,-99.99,,2013-02-13 22:01:00,
2013-02-13 15:11:00,33.0,18.0,30.53,SSE,167,3.0,-999.0,53,-99.99,,,-99.99,,2013-02-13 22:11:00,
2013-02-13 15:21:00,33.0,18.0,30.53,SSE,167,3.0,-999.0,53,-99.99,,,-99.99,,2013-02-13 22:21:00,
2013-02-13 15:31:00,34.0,18.0,30.53,SSE,149,2.0,-999.0,52,-99.99,,,-99.99,,2013-02-13 22:31:00,
2013-02-13 15:41:00,34.0,18.0,30.53,SSE,149,2.0,-999.0,52,-99.99,,,-99.99,,2013-02-13 22:41:00,
2013-02-13 15:51:00,34.0,18.0,30.53,SSE,149,2.0,-999.0,52,-99.99,,,-99.99,,2013-02-13 22:51:00,
2013-02-13 16:01:00,35.0,19.0,30.53,SE,127,1.0,-999.0,51,-99.99,,,-99.99,,2013-02-13 23:01:00,
2013-02-13 16:11:00,35.0,19.0,30.53,SE,127,1.0,-999.0,51,-99.99,,,-99.99,,2013-02-13 23:11:00,
2013-02-13 16:21:00,35.0,19.0,30.53,SE,127,1.0,-999.0,51,-99.99,,,-99.99,,2013-02-13 23:21:00,
2013-02-13 16:31:00,30.0,18.0,30.56,West,268,3.0,-999.0,60,-99.99,,,-99.99,,2013-02-13 23:31:00,
2013-02-13 16:41:00,30.0,18.0,30.56,West,268,3.0,-999.0,60,-99.99,,,-99.99,,2013-02-13 23:41:00,
2013-02-13 16:52:00,29.0,18.0,30.60,West,268,2.0,-999.0,63,-99.99,,,-99.99,,2013-02-13 23:52:00,
2013-02-13 17:01:00,29.0,19.0,30.60,West,268,1.0,-999.0,65,-99.99,,,-99.99,,2013-02-14 00:01:00,
2013-02-13 17:21:00,28.0,18.0,30.60,West,268,1.0,-999.0,67,-99.99,,,-99.99,,2013-02-14 00:21:00,
2013-02-13 17:31:00,27.0,19.0,30.62,West,268,0.0,-999.0,70,-99.99,,,-99.99,,2013-02-14 00:31:00,
2013-02-13 17:41:00,27.0,19.0,30.62,West,268,0.0,-999.0,70,-99.99,,,-99.99,,2013-02-14 00:41:00,
2013-02-13 17:51:00,27.0,20.0,30.63,West,268,0.0,-999.0,74,-99.99,,,-99.99,,2013-02-14 00:51:00,
2013-02-13 18:01:00,26.0,19.0,30.62,West,268,0.0,-999.0,76,-99.99,,,-99.99,,2013-02-14 01:01:00,
2013-02-13 18:11:00,25.0,19.0,30.64,West,268,0.0,-999.0,76,-99.99,,,-99.99,,2013-02-14 01:11:00,
2013-02-13 18:21:00,25.0,19.0,30.64,West,268,0.0,-999.0,76,-99.99,,,-99.99,,2013-02-14 01:21:00,
2013-02-13 18:31:00,25.0,19.0,30.64,West,268,0.0,-999.0,77,-99.99,,,-99.99,,2013-02-14 01:31:00,
2013-02-13 18:41:00,25.0,19.0,30.64,West,268,0.0,-999.0,77,-99.99,,,-99.99,,2013-02-14 01:41:00,
2013-02-13 18:51:00,25.0,19.0,30.64,West,268,0.0,-999.0,77,-99.99,,,-99.99,,2013-02-14 01:51:00,
2013-02-13 19:01:00,24.0,18.0,30.67,West,268,0.0,-999.0,79,-99.99,,,-99.99,,2013-02-14 02:01:00,
2013-02-13 19:11:00,24.0,19.0,30.68,West,268,0.0,-999.0,81,-99.99,,,-99.99,,2013-02-14 02:11:00,
2013-02-13 19:21:00,24.0,19.0,30.68,West,268,0.0,-999.0,81,-99.99,,,-99.99,,2013-02-14 02:21:00,
2013-02-13 19:31:00,23.0,18.0,30.66,West,268,0.0,-999.0,81,-99.99,,,-99.99,,2013-02-14 02:31:00,
2013-02-13 19:41:00,23.0,18.0,30.66,West,268,0.0,-999.0,81,-99.99,,,-99.99,,2013-02-14 02:41:00,
2013-02-13 19:51:00,23.0,18.0,30.66,West,268,0.0,-999.0,81,-99.99,,,-99.99,,2013-02-14 02:51:00,
2013-02-13 20:02:00,22.0,17.0,30.67,West,268,0.0,-999.0,82,-99.99,,,-99.99,,2013-02-14 03:02:00,
2013-02-13 20:11:00,22.0,18.0,30.68,West,268,0.0,-999.0,83,-99.99,,,-99.99,,2013-02-14 03:11:00,
2013-02-13 20:21:00,22.0,18.0,30.68,West,268,0.0,-999.0,83,-99.99,,,-99.99,,2013-02-14 03:21:00,
2013-02-13 20:31:00,22.0,18.0,30.60,West,268,0.0,-999.0,83,-99.99,,,-99.99,,2013-02-14 03:31:00,
2013-02-13 20:42:00,22.0,18.0,30.62,West,268,0.0,-999.0,83,-99.99,,,-99.99,,2013-02-14 03:42:00,
2013-02-13 20:51:00,22.0,18.0,30.62,West,268,0.0,-999.0,83,-99.99,,,-99.99,,2013-02-14 03:51:00,
2013-02-13 21:01:00,21.0,17.0,30.62,West,268,0.0,-999.0,83,-99.99,,,-99.99,,2013-02-14 04:01:00,
2013-02-13 21:11:00,21.0,17.0,30.62,West,268,0.0,-999.0,83,-99.99,,,-99.99,,2013-02-14 04:11:00,
2013-02-13 21:21:00,21.0,17.0,30.62,West,268,0.0,-999.0,83,-99.99,,,-99.99,,2013-02-14 04:21:00,
2013-02-13 21:31:00,20.0,16.0,30.60,West,268,0.0,-999.0,86,-99.99,,,-99.99,,2013-02-14 04:31:00,
2013-02-13 21:41:00,20.0,16.0,30.60,West,268,0.0,-999.0,86,-99.99,,,-99.99,,2013-02-14 04:41:00,
2013-02-13 21:52:00,20.0,16.0,30.60,West,268,0.0,-999.0,86,-99.99,,,-99.99,,2013-02-14 04:52:00,
2013-02-13 22:01:00,20.0,16.0,30.61,West,268,0.0,-999.0,86,-99.99,,,-99.99,,2013-02-14 05:01:00,
2013-02-13 22:11:00,20.0,16.0,30.61,West,268,0.0,-999.0,86,-99.99,,,-99.99,,2013-02-14 05:11:00,
2013-02-13 22:21:00,20.0,16.0,30.61,West,268,0.0,-999.0,86,-99.99,,,-99.99,,2013-02-14 05:21:00,
2013-02-13 22:31:00,20.0,16.0,30.58,West,268,0.0,-999.0,86,-99.99,,,-99.99,,2013-02-14 05:31:00,
2013-02-13 22:41:00,20.0,16.0,30.58,West,268,0.0,-999.0,86,-99.99,,,-99.99,,2013-02-14 05:41:00,
2013-02-13 22:52:00,20.0,16.0,30.59,West,268,0.0,-999.0,86,-99.99,,,-99.99,,2013-02-14 05:52:00,
2013-02-13 23:01:00,20.0,16.0,30.61,West,268,0.0,-999.0,86,-99.99,,,-99.99,,2013-02-14 06:01:00,
2013-02-13 23:11:00,20.0,16.0,30.60,West,268,0.0,-999.0,86,-99.99,,,-99.99,,2013-02-14 06:11:00,
2013-02-13 23:21:00,20.0,16.0,30.60,West,268,0.0,-999.0,86,-99.99,,,-99.99,,2013-02-14 06:21:00,
2013-02-13 23:31:00,20.0,16.0,30.57,West,268,0.0,-999.0,86,-99.99,,,-99.99,,2013-02-14 06:31:00,
2013-02-13 23:41:00,20.0,16.0,30.57,West,268,0.0,-999.0,86,-99.99,,,-99.99,,2013-02-14 06:41:00,
2013-02-13 23:51:00,19.0,16.0,30.57,West,268,0.0,-999.0,86,-99.99,,,-99.99,,2013-02-14 06:51:00,